createdAt,value
2022-07-28T00:00:03.371Z,0.00
2022-07-28T00:01:03.582Z,0.00
2022-07-28T00:02:03.962Z,0.00
2022-07-28T00:03:04.359Z,0.00
2022-07-28T00:04:03.872Z,0.00
2022-07-28T00:05:04.170Z,0.00
2022-07-28T00:06:03.867Z,0.00
2022-07-28T00:07:03.256Z,0.00
2022-07-28T00:08:03.558Z,0.00
2022-07-28T00:09:03.260Z,0.00
2022-07-28T00:10:03.726Z,0.00
2022-07-28T00:11:03.352Z,0.00
2022-07-28T00:12:03.590Z,0.00
2022-07-28T00:13:06.833Z,0.00
2022-07-28T00:14:03.833Z,0.00
2022-07-28T00:15:04.202Z,0.00
2022-07-28T00:16:03.861Z,0.00
2022-07-28T00:17:03.283Z,0.00
2022-07-28T00:18:03.588Z,0.00
2022-07-28T00:19:03.237Z,0.00
2022-07-28T00:20:03.565Z,0.00
2022-07-28T00:21:03.472Z,0.00
2022-07-28T00:22:03.700Z,0.00
2022-07-28T00:23:04.045Z,0.00
2022-07-28T00:24:03.654Z,0.00
2022-07-28T00:25:03.956Z,0.00
2022-07-28T00:26:03.613Z,0.00
2022-07-28T00:27:04.089Z,0.00
2022-07-28T00:28:03.936Z,0.00
2022-07-28T00:29:03.812Z,0.00
2022-07-28T00:30:04.065Z,0.00
2022-07-28T00:31:05.791Z,0.00
2022-07-28T00:32:03.631Z,0.00
2022-07-28T00:33:04.712Z,0.00
2022-07-28T00:34:03.360Z,0.00
2022-07-28T00:35:03.621Z,0.00
2022-07-28T00:36:03.482Z,0.00
2022-07-28T00:37:06.758Z,0.00
2022-07-28T00:38:03.601Z,0.00
2022-07-28T00:39:04.013Z,0.00
2022-07-28T00:40:03.593Z,0.00
2022-07-28T00:41:03.992Z,0.00
2022-07-28T00:42:03.331Z,0.00
2022-07-28T00:43:03.566Z,0.00
2022-07-28T00:44:03.168Z,0.00
2022-07-28T00:45:03.136Z,0.00
2022-07-28T00:46:03.278Z,0.00
2022-07-28T00:47:03.689Z,0.00
2022-07-28T00:48:03.483Z,0.00
2022-07-28T00:49:03.966Z,0.00
2022-07-28T00:50:03.594Z,0.00
2022-07-28T00:51:03.838Z,0.00
2022-07-28T00:52:04.159Z,0.00
2022-07-28T00:53:04.403Z,0.00
2022-07-28T00:54:04.448Z,0.00
2022-07-28T00:55:04.015Z,0.00
2022-07-28T00:56:06.568Z,0.00
2022-07-28T00:57:03.423Z,0.00
2022-07-28T00:58:03.629Z,0.00
2022-07-28T00:59:03.887Z,0.00
2022-07-28T01:00:03.557Z,0.00
2022-07-28T01:01:04.151Z,0.00
2022-07-28T01:02:03.993Z,0.00
2022-07-28T01:03:03.828Z,0.00
2022-07-28T01:04:03.889Z,0.00
2022-07-28T01:05:04.215Z,0.00
2022-07-28T01:06:03.808Z,0.00
2022-07-28T01:07:04.110Z,0.00
2022-07-28T01:08:03.879Z,0.00
2022-07-28T01:09:04.460Z,0.00
2022-07-28T01:10:04.271Z,0.00
2022-07-28T01:11:03.823Z,0.00
2022-07-28T01:12:03.856Z,0.00
2022-07-28T01:13:03.479Z,0.00
2022-07-28T01:14:03.876Z,0.00
2022-07-28T01:15:03.933Z,0.00
2022-07-28T01:16:03.696Z,0.00
2022-07-28T01:17:04.224Z,0.00
2022-07-28T01:18:03.810Z,0.00
2022-07-28T01:19:04.312Z,0.00
2022-07-28T01:20:03.847Z,0.00
2022-07-28T01:21:04.058Z,0.00
2022-07-28T01:22:04.294Z,0.00
2022-07-28T01:23:03.807Z,0.00
2022-07-28T01:24:03.798Z,0.00
2022-07-28T01:25:04.243Z,0.00
2022-07-28T01:26:03.693Z,0.00
2022-07-28T01:27:03.481Z,0.00
2022-07-28T01:28:03.561Z,0.00
2022-07-28T01:29:03.689Z,0.00
2022-07-28T01:30:03.943Z,0.00
2022-07-28T01:31:04.024Z,0.00
2022-07-28T01:32:04.443Z,0.00
2022-07-28T01:33:04.020Z,0.00
2022-07-28T01:34:04.344Z,0.00
2022-07-28T01:35:04.188Z,0.00
2022-07-28T01:36:03.957Z,0.00
2022-07-28T01:37:04.021Z,0.00
2022-07-28T01:38:03.541Z,0.00
2022-07-28T01:39:04.046Z,0.00
2022-07-28T01:40:03.802Z,0.00
2022-07-28T01:41:04.136Z,0.00
2022-07-28T01:42:03.249Z,0.00
2022-07-28T01:43:03.375Z,0.00
2022-07-28T01:44:03.383Z,0.00
2022-07-28T01:45:03.284Z,0.00
2022-07-28T01:46:03.344Z,0.00
2022-07-28T01:47:03.653Z,0.00
2022-07-28T01:48:03.243Z,0.00
2022-07-28T01:49:03.559Z,0.00
2022-07-28T01:50:03.217Z,0.00
2022-07-28T01:51:03.484Z,0.00
2022-07-28T01:52:03.817Z,0.00
2022-07-28T01:53:03.626Z,0.00
2022-07-28T01:54:03.652Z,0.00
2022-07-28T01:55:03.348Z,0.00
2022-07-28T01:56:03.531Z,0.00
2022-07-28T01:57:03.386Z,0.00
2022-07-28T01:58:03.705Z,0.00
2022-07-28T01:59:03.301Z,0.00
2022-07-28T02:00:03.573Z,0.00
2022-07-28T02:01:03.868Z,0.00
2022-07-28T02:02:04.011Z,0.00
2022-07-28T02:03:04.365Z,0.00
2022-07-28T02:04:04.427Z,0.00
2022-07-28T02:05:04.133Z,0.00
2022-07-28T02:06:04.410Z,0.00
2022-07-28T02:07:03.539Z,0.00
2022-07-28T02:08:03.165Z,0.00
2022-07-28T02:09:03.570Z,0.00
2022-07-28T02:10:03.169Z,0.00
2022-07-28T02:11:03.139Z,0.00
2022-07-28T02:12:04.017Z,0.00
2022-07-28T02:13:04.198Z,0.00
2022-07-28T02:14:03.882Z,0.00
2022-07-28T02:15:04.140Z,0.00
2022-07-28T02:16:04.497Z,0.00
2022-07-28T02:17:03.373Z,0.00
2022-07-28T02:18:03.579Z,0.00
2022-07-28T02:19:03.923Z,0.00
2022-07-28T02:20:03.900Z,0.00
2022-07-28T02:21:03.513Z,0.00
2022-07-28T02:22:03.818Z,0.00
2022-07-28T02:23:03.619Z,0.00
2022-07-28T02:24:03.851Z,0.00
2022-07-28T02:25:03.619Z,0.00
2022-07-28T02:26:03.919Z,0.00
2022-07-28T02:27:04.168Z,0.00
2022-07-28T02:28:03.856Z,0.00
2022-07-28T02:29:03.953Z,0.00
2022-07-28T02:30:03.578Z,0.00
2022-07-28T02:31:03.664Z,0.00
2022-07-28T02:32:03.346Z,0.00
2022-07-28T02:33:03.842Z,0.00
2022-07-28T02:34:03.339Z,0.00
2022-07-28T02:35:03.567Z,0.00
2022-07-28T02:36:03.181Z,0.00
2022-07-28T02:37:03.412Z,0.00
2022-07-28T02:38:03.680Z,0.00
2022-07-28T02:39:04.051Z,0.00
2022-07-28T02:40:03.664Z,0.00
2022-07-28T02:41:03.928Z,0.00
2022-07-28T02:42:03.542Z,0.00
2022-07-28T02:43:03.813Z,0.00
2022-07-28T02:44:03.764Z,0.00
2022-07-28T02:45:04.134Z,0.00
2022-07-28T02:46:03.789Z,0.00
2022-07-28T02:47:03.136Z,0.00
2022-07-28T02:48:03.436Z,0.00
2022-07-28T02:49:03.210Z,0.00
2022-07-28T02:50:03.541Z,0.00
2022-07-28T02:51:03.738Z,0.00
2022-07-28T02:52:03.308Z,0.00
2022-07-28T02:53:14.873Z,0.00
2022-07-28T02:54:03.453Z,0.00
2022-07-28T02:55:03.818Z,0.00
2022-07-28T02:56:03.577Z,0.00
2022-07-28T02:57:03.896Z,0.00
2022-07-28T02:58:05.148Z,0.00
2022-07-28T02:59:04.346Z,0.00
2022-07-28T03:00:03.921Z,0.00
2022-07-28T03:01:04.441Z,0.00
2022-07-28T03:02:03.085Z,0.00
2022-07-28T03:03:03.150Z,0.00
2022-07-28T03:04:03.503Z,0.00
2022-07-28T03:05:03.219Z,0.00
2022-07-28T03:06:03.363Z,0.00
2022-07-28T03:07:03.057Z,0.00
2022-07-28T03:08:02.556Z,0.00
2022-07-28T03:09:03.021Z,0.00
2022-07-28T03:10:02.690Z,0.00
2022-07-28T03:11:03.005Z,0.00
2022-07-28T03:12:03.168Z,4.00
2022-07-28T03:13:03.511Z,4.00
2022-07-28T03:14:03.132Z,0.00
2022-07-28T03:15:03.810Z,0.00
2022-07-28T03:16:03.361Z,4.00
2022-07-28T03:17:02.806Z,4.00
2022-07-28T03:18:02.974Z,4.00
2022-07-28T03:19:02.525Z,4.00
2022-07-28T03:20:02.757Z,4.00
2022-07-28T03:21:02.498Z,8.00
2022-07-28T03:22:02.731Z,4.00
2022-07-28T03:23:02.636Z,8.00
2022-07-28T03:24:02.983Z,8.00
2022-07-28T03:25:02.768Z,12.00
2022-07-28T03:26:02.862Z,12.00
2022-07-28T03:27:03.150Z,12.00
2022-07-28T03:28:03.450Z,16.00
2022-07-28T03:29:03.054Z,16.00
2022-07-28T03:30:04.246Z,16.00
2022-07-28T03:31:03.088Z,24.00
2022-07-28T03:32:03.451Z,24.00
2022-07-28T03:33:03.708Z,28.00
2022-07-28T03:34:03.424Z,32.00
2022-07-28T03:35:03.842Z,36.00
2022-07-28T03:36:03.463Z,40.00
2022-07-28T03:37:03.047Z,44.00
2022-07-28T03:38:02.836Z,52.00
2022-07-28T03:39:03.188Z,56.00
2022-07-28T03:40:02.775Z,64.00
2022-07-28T03:41:03.171Z,72.00
2022-07-28T03:42:03.486Z,80.00
2022-07-28T03:43:03.600Z,88.00
2022-07-28T03:44:03.223Z,100.00
2022-07-28T03:45:03.528Z,108.00
2022-07-28T03:46:03.214Z,116.00
2022-07-28T03:47:03.207Z,128.00
2022-07-28T03:48:03.046Z,144.00
2022-07-28T03:49:03.480Z,156.00
2022-07-28T03:50:03.158Z,172.00
2022-07-28T03:51:03.487Z,188.00
2022-07-28T03:52:02.886Z,204.00
2022-07-28T03:53:03.064Z,224.00
2022-07-28T03:54:02.680Z,244.00
2022-07-28T03:55:03.052Z,264.00
2022-07-28T03:56:02.705Z,288.00
2022-07-28T03:57:03.285Z,312.00
2022-07-28T03:58:03.380Z,344.00
2022-07-28T03:59:03.590Z,380.00
2022-07-28T04:00:09.040Z,412.00
2022-07-28T04:01:03.435Z,452.00
2022-07-28T04:02:04.057Z,492.00
2022-07-28T04:03:03.946Z,532.00
2022-07-28T04:04:03.576Z,576.00
2022-07-28T04:05:03.593Z,624.00
2022-07-28T04:06:03.963Z,676.00
2022-07-28T04:07:03.009Z,736.00
2022-07-28T04:08:03.437Z,792.00
2022-07-28T04:09:03.106Z,860.00
2022-07-28T04:10:03.447Z,928.00
2022-07-28T04:11:02.890Z,1004.00
2022-07-28T04:12:03.935Z,1084.00
2022-07-28T04:13:03.725Z,1160.00
2022-07-28T04:14:04.075Z,1236.00
2022-07-28T04:15:03.767Z,1316.00
2022-07-28T04:16:03.527Z,1388.00
2022-07-28T04:17:03.791Z,1452.00
2022-07-28T04:18:03.470Z,1516.00
2022-07-28T04:19:03.645Z,1568.00
2022-07-28T04:20:03.458Z,1608.00
2022-07-28T04:21:03.300Z,1628.00
2022-07-28T04:22:02.667Z,1644.00
2022-07-28T04:23:03.173Z,1652.00
2022-07-28T04:24:02.928Z,1656.00
2022-07-28T04:25:02.619Z,1668.00
2022-07-28T04:26:03.000Z,1684.00
2022-07-28T04:27:03.297Z,1708.00
2022-07-28T04:28:02.779Z,1744.00
2022-07-28T04:29:03.613Z,1784.00
2022-07-28T04:30:02.733Z,1828.00
2022-07-28T04:31:03.468Z,1876.00
2022-07-28T04:32:03.416Z,1920.00
2022-07-28T04:33:03.905Z,1968.00
2022-07-28T04:34:03.438Z,2004.00
2022-07-28T04:35:03.831Z,2040.00
2022-07-28T04:36:03.513Z,2084.00
2022-07-28T04:37:03.449Z,2124.00
2022-07-28T04:38:03.260Z,2184.00
2022-07-28T04:39:03.045Z,2272.00
2022-07-28T04:40:03.432Z,2368.00
2022-07-28T04:41:03.059Z,2484.00
2022-07-28T04:42:03.521Z,2600.00
2022-07-28T04:43:04.095Z,2676.00
2022-07-28T04:44:03.890Z,2704.00
2022-07-28T04:45:03.656Z,2696.00
2022-07-28T04:46:04.128Z,2624.00
2022-07-28T04:47:02.834Z,2492.00
2022-07-28T04:48:02.796Z,2344.00
2022-07-28T04:49:03.284Z,2224.00
2022-07-28T04:50:03.060Z,2104.00
2022-07-28T04:51:02.866Z,2012.00
2022-07-28T04:52:02.902Z,1936.00
2022-07-28T04:53:03.415Z,1884.00
2022-07-28T04:54:03.159Z,1880.00
2022-07-28T04:55:03.298Z,1904.00
2022-07-28T04:56:03.021Z,1932.00
2022-07-28T04:57:03.308Z,1952.00
2022-07-28T04:58:03.714Z,1996.00
2022-07-28T04:59:03.929Z,2020.00
2022-07-28T05:00:03.279Z,2080.00
2022-07-28T05:01:03.664Z,2136.00
2022-07-28T05:02:02.907Z,2204.00
2022-07-28T05:03:02.911Z,2292.00
2022-07-28T05:04:02.700Z,2364.00
2022-07-28T05:05:02.699Z,2436.00
2022-07-28T05:06:02.555Z,2516.00
2022-07-28T05:07:07.908Z,2608.00
2022-07-28T05:08:03.013Z,2660.00
2022-07-28T05:09:03.493Z,2700.00
2022-07-28T05:10:03.284Z,2716.00
2022-07-28T05:11:03.032Z,2736.00
2022-07-28T05:12:02.554Z,2780.00
2022-07-28T05:13:03.041Z,2868.00
2022-07-28T05:14:02.889Z,3028.00
2022-07-28T05:15:02.580Z,3212.00
2022-07-28T05:16:03.057Z,3460.00
2022-07-28T05:17:02.853Z,3688.00
2022-07-28T05:18:03.020Z,3900.00
2022-07-28T05:19:02.972Z,4076.00
2022-07-28T05:20:03.576Z,4264.00
2022-07-28T05:21:02.776Z,4524.00
2022-07-28T05:22:03.186Z,4832.00
2022-07-28T05:23:03.370Z,5140.00
2022-07-28T05:24:03.649Z,5484.00
2022-07-28T05:25:03.473Z,5632.00
2022-07-28T05:26:03.206Z,5844.00
2022-07-28T05:27:02.675Z,6016.00
2022-07-28T05:28:02.165Z,6132.00
2022-07-28T05:29:02.519Z,6200.00
2022-07-28T05:30:02.784Z,6188.00
2022-07-28T05:31:02.594Z,6132.00
2022-07-28T05:32:08.025Z,6132.00
2022-07-28T05:33:03.345Z,5816.00
2022-07-28T05:34:03.242Z,5736.00
2022-07-28T05:35:02.937Z,5868.00
2022-07-28T05:36:03.378Z,5540.00
2022-07-28T05:37:02.729Z,5264.00
2022-07-28T05:38:03.693Z,4668.00
2022-07-28T05:39:02.603Z,4428.00
2022-07-28T05:40:02.879Z,4436.00
2022-07-28T05:41:02.687Z,4180.00
2022-07-28T05:42:03.262Z,4140.00
2022-07-28T05:43:02.948Z,4120.00
2022-07-28T05:44:03.343Z,4192.00
2022-07-28T05:45:03.227Z,5004.00
2022-07-28T05:46:03.032Z,5148.00
2022-07-28T05:47:03.410Z,5600.00
2022-07-28T05:48:03.754Z,4940.00
2022-07-28T05:49:03.568Z,5868.00
2022-07-28T05:50:03.903Z,5744.00
2022-07-28T05:51:03.613Z,5884.00
2022-07-28T05:52:03.052Z,6196.00
2022-07-28T05:53:03.361Z,6456.00
2022-07-28T05:54:03.071Z,6888.00
2022-07-28T05:55:02.823Z,7448.00
2022-07-28T05:56:03.268Z,7140.00
2022-07-28T05:57:02.393Z,6972.00
2022-07-28T05:58:02.841Z,6992.00
2022-07-28T05:59:02.576Z,7164.00
2022-07-28T06:00:02.608Z,7308.00
2022-07-28T06:01:03.100Z,7500.00
2022-07-28T06:02:04.082Z,7704.00
2022-07-28T06:03:03.919Z,8104.00
2022-07-28T06:04:25.768Z,9320.00
2022-07-28T06:05:04.083Z,9172.00
2022-07-28T06:06:14.822Z,9780.00
2022-07-28T06:07:03.790Z,10624.00
2022-07-28T06:08:03.922Z,11148.00
2022-07-28T06:09:03.708Z,11308.00
2022-07-28T06:10:03.457Z,11736.00
2022-07-28T06:11:03.523Z,12096.00
2022-07-28T06:12:04.057Z,12224.00
2022-07-28T06:13:03.853Z,13664.00
2022-07-28T06:14:03.680Z,15168.00
2022-07-28T06:15:04.204Z,17728.00
2022-07-28T06:16:03.844Z,19360.00
2022-07-28T06:17:03.643Z,20448.00
2022-07-28T06:18:03.635Z,19712.00
2022-07-28T06:19:03.727Z,20384.00
2022-07-28T06:20:03.573Z,19648.00
2022-07-28T06:21:03.418Z,16928.00
2022-07-28T06:22:03.457Z,14368.00
2022-07-28T06:23:03.885Z,13472.00
2022-07-28T06:24:03.765Z,13576.00
2022-07-28T06:25:03.523Z,13356.00
2022-07-28T06:26:04.062Z,12920.00
2022-07-28T06:27:04.285Z,12580.00
2022-07-28T06:28:03.300Z,12688.00
2022-07-28T06:29:03.974Z,12864.00
2022-07-28T06:30:04.415Z,13324.00
2022-07-28T06:31:03.851Z,13484.00
2022-07-28T06:32:04.438Z,13088.00
2022-07-28T06:33:04.546Z,13484.00
2022-07-28T06:34:04.075Z,13412.00
2022-07-28T06:35:04.056Z,13576.00
2022-07-28T06:36:04.590Z,14128.00
2022-07-28T06:37:04.195Z,13936.00
2022-07-28T06:38:04.028Z,13548.00
2022-07-28T06:39:04.188Z,14292.00
2022-07-28T06:40:04.056Z,14612.00
2022-07-28T06:41:04.267Z,14840.00
2022-07-28T06:42:03.778Z,14784.00
2022-07-28T06:43:03.589Z,14536.00
2022-07-28T06:44:03.383Z,15488.00
2022-07-28T06:45:03.510Z,15648.00
2022-07-28T06:46:03.352Z,15808.00
2022-07-28T06:47:03.984Z,15872.00
2022-07-28T06:48:03.516Z,15872.00
2022-07-28T06:49:04.058Z,15872.00
2022-07-28T06:50:03.998Z,16032.00
2022-07-28T06:51:03.641Z,15904.00
2022-07-28T06:52:04.159Z,16096.00
2022-07-28T06:53:04.294Z,16192.00
2022-07-28T06:54:07.970Z,16256.00
2022-07-28T06:55:03.874Z,16352.00
2022-07-28T06:56:04.297Z,16416.00
2022-07-28T06:57:04.134Z,16352.00
2022-07-28T06:58:04.066Z,16416.00
2022-07-28T06:59:04.554Z,16288.00
2022-07-28T07:00:04.397Z,16448.00
2022-07-28T07:01:04.458Z,16384.00
2022-07-28T07:02:03.904Z,15808.00
2022-07-28T07:03:03.617Z,16160.00
2022-07-28T07:04:03.562Z,15192.00
2022-07-28T07:05:03.479Z,16640.00
2022-07-28T07:06:03.872Z,16736.00
2022-07-28T07:07:04.371Z,16832.00
2022-07-28T07:08:04.196Z,17024.00
2022-07-28T07:09:03.978Z,16960.00
2022-07-28T07:10:04.346Z,16832.00
2022-07-28T07:11:04.172Z,16256.00
2022-07-28T07:12:03.687Z,16576.00
2022-07-28T07:13:03.265Z,17056.00
2022-07-28T07:14:03.658Z,17600.00
2022-07-28T07:15:03.484Z,17728.00
2022-07-28T07:16:03.240Z,17664.00
2022-07-28T07:17:04.010Z,17888.00
2022-07-28T07:18:03.586Z,18112.00
2022-07-28T07:19:06.856Z,18528.00
2022-07-28T07:20:03.452Z,18944.00
2022-07-28T07:21:03.853Z,18944.00
2022-07-28T07:22:02.839Z,18912.00
2022-07-28T07:23:03.365Z,18880.00
2022-07-28T07:24:02.952Z,18912.00
2022-07-28T07:25:03.198Z,18944.00
2022-07-28T07:26:03.057Z,19072.00
2022-07-28T07:27:03.041Z,18976.00
2022-07-28T07:28:03.563Z,18688.00
2022-07-28T07:29:03.436Z,18048.00
2022-07-28T07:30:03.231Z,18048.00
2022-07-28T07:31:03.091Z,18240.00
2022-07-28T07:32:08.481Z,19040.00
2022-07-28T07:33:03.642Z,19840.00
2022-07-28T07:34:03.483Z,20064.00
2022-07-28T07:35:03.827Z,20352.00
2022-07-28T07:36:03.543Z,19360.00
2022-07-28T07:37:03.179Z,19008.00
2022-07-28T07:38:03.202Z,19200.00
2022-07-28T07:39:03.459Z,20224.00
2022-07-28T07:40:03.165Z,19264.00
2022-07-28T07:41:03.637Z,17632.00
2022-07-28T07:42:03.457Z,20288.00
2022-07-28T07:43:03.699Z,21248.00
2022-07-28T07:44:03.860Z,21344.00
2022-07-28T07:45:04.043Z,21504.00
2022-07-28T07:46:04.131Z,21568.00
2022-07-28T07:47:04.662Z,21664.00
2022-07-28T07:48:04.380Z,21472.00
2022-07-28T07:49:04.471Z,21696.00
2022-07-28T07:50:04.835Z,21568.00
2022-07-28T07:51:04.015Z,22208.00
2022-07-28T07:52:03.510Z,22272.00
2022-07-28T07:53:03.966Z,21792.00
2022-07-28T07:54:04.076Z,20896.00
2022-07-28T07:55:03.666Z,20544.00
2022-07-28T07:56:04.079Z,20672.00
2022-07-28T07:57:03.534Z,20480.00
2022-07-28T07:58:03.999Z,20768.00
2022-07-28T07:59:03.779Z,20544.00
2022-07-28T08:00:03.785Z,21440.00
2022-07-28T08:01:03.678Z,21088.00
2022-07-28T08:02:03.360Z,22112.00
2022-07-28T08:03:03.374Z,22976.00
2022-07-28T08:04:03.268Z,22784.00
2022-07-28T08:05:03.240Z,22848.00
2022-07-28T08:06:03.261Z,23456.00
2022-07-28T08:07:02.920Z,23008.00
2022-07-28T08:08:02.928Z,23648.00
2022-07-28T08:09:02.733Z,23392.00
2022-07-28T08:10:02.818Z,23008.00
2022-07-28T08:11:02.644Z,22912.00
2022-07-28T08:12:02.953Z,21760.00
2022-07-28T08:13:03.443Z,23136.00
2022-07-28T08:14:03.157Z,23200.00
2022-07-28T08:15:02.937Z,23744.00
2022-07-28T08:16:03.303Z,24640.00
2022-07-28T08:17:02.860Z,25056.00
2022-07-28T08:18:02.995Z,24928.00
2022-07-28T08:19:02.836Z,24320.00
2022-07-28T08:20:03.327Z,24192.00
2022-07-28T08:21:03.153Z,24096.00
2022-07-28T08:22:02.611Z,24352.00
2022-07-28T08:23:02.781Z,25088.00
2022-07-28T08:24:02.907Z,24704.00
2022-07-28T08:25:02.741Z,24832.00
2022-07-28T08:26:02.396Z,23904.00
2022-07-28T08:27:02.784Z,23104.00
2022-07-28T08:28:02.637Z,23424.00
2022-07-28T08:29:02.830Z,24224.00
2022-07-28T08:30:02.685Z,23904.00
2022-07-28T08:31:03.255Z,24416.00
2022-07-28T08:32:03.689Z,24448.00
2022-07-28T08:33:03.400Z,24768.00
2022-07-28T08:34:03.713Z,25152.00
2022-07-28T08:35:30.305Z,26592.00
2022-07-28T08:36:03.093Z,26432.00
2022-07-28T08:37:02.836Z,26624.00
2022-07-28T08:38:02.822Z,26144.00
2022-07-28T08:39:02.990Z,27168.00
2022-07-28T08:40:03.010Z,27008.00
2022-07-28T08:41:02.682Z,26688.00
2022-07-28T08:42:03.282Z,27360.00
2022-07-28T08:43:03.349Z,27744.00
2022-07-28T08:44:03.142Z,27328.00
2022-07-28T08:45:03.086Z,27648.00
2022-07-28T08:46:03.626Z,27040.00
2022-07-28T08:47:03.792Z,26176.00
2022-07-28T08:48:11.221Z,25344.00
2022-07-28T08:49:04.119Z,27008.00
2022-07-28T08:50:03.883Z,26144.00
2022-07-28T08:51:03.615Z,26624.00
2022-07-28T08:52:03.143Z,26720.00
2022-07-28T08:53:02.810Z,26368.00
2022-07-28T08:54:03.025Z,26080.00
2022-07-28T08:55:02.973Z,27040.00
2022-07-28T08:56:02.927Z,28672.00
2022-07-28T08:57:03.243Z,28640.00
2022-07-28T08:58:02.877Z,30592.00
2022-07-28T08:59:03.270Z,30720.00
2022-07-28T09:00:03.295Z,29216.00
2022-07-28T09:01:03.389Z,29120.00
2022-07-28T09:02:03.957Z,29152.00
2022-07-28T09:03:03.832Z,29888.00
2022-07-28T09:04:03.687Z,29632.00
2022-07-28T09:05:04.017Z,31424.00
2022-07-28T09:06:03.736Z,30688.00
2022-07-28T09:07:03.968Z,27360.00
2022-07-28T09:08:04.160Z,27584.00
2022-07-28T09:09:03.968Z,29184.00
2022-07-28T09:10:04.176Z,27904.00
2022-07-28T09:11:03.666Z,28992.00
2022-07-28T09:12:03.494Z,31168.00
2022-07-28T09:13:03.305Z,32192.00
2022-07-28T09:14:03.105Z,32224.00
2022-07-28T09:15:03.573Z,33504.00
2022-07-28T09:16:03.422Z,33440.00
2022-07-28T09:17:05.346Z,34112.00
2022-07-28T09:18:03.498Z,33952.00
2022-07-28T09:19:03.989Z,34720.00
2022-07-28T09:20:08.844Z,33760.00
2022-07-28T09:21:03.570Z,34528.00
2022-07-28T09:22:03.390Z,33760.00
2022-07-28T09:23:03.176Z,34208.00
2022-07-28T09:24:03.590Z,35264.00
2022-07-28T09:25:03.450Z,35648.00
2022-07-28T09:26:05.880Z,35392.00
2022-07-28T09:27:03.461Z,34880.00
2022-07-28T09:28:03.390Z,35808.00
2022-07-28T09:29:03.136Z,34880.00
2022-07-28T09:30:03.548Z,31680.00
2022-07-28T09:31:03.336Z,35616.00
2022-07-28T09:32:03.911Z,36128.00
2022-07-28T09:33:04.026Z,36000.00
2022-07-28T09:34:03.831Z,36384.00
2022-07-28T09:35:03.428Z,36416.00
2022-07-28T09:36:03.768Z,36576.00
2022-07-28T09:37:04.120Z,35872.00
2022-07-28T09:38:04.107Z,36992.00
2022-07-28T09:39:04.051Z,36992.00
2022-07-28T09:40:04.163Z,38016.00
2022-07-28T09:41:04.002Z,38816.00
2022-07-28T09:42:04.260Z,39424.00
2022-07-28T09:43:03.878Z,40128.00
2022-07-28T09:44:04.450Z,40416.00
2022-07-28T09:45:21.894Z,42368.00
2022-07-28T09:46:04.286Z,41984.00
2022-07-28T09:47:04.095Z,42880.00
2022-07-28T09:48:03.606Z,42400.00
2022-07-28T09:49:03.702Z,43072.00
2022-07-28T09:50:03.747Z,44928.00
2022-07-28T09:51:03.638Z,45408.00
2022-07-28T09:52:03.882Z,46272.00
2022-07-28T09:53:03.637Z,46272.00
2022-07-28T09:54:03.828Z,43872.00
2022-07-28T09:55:03.654Z,46784.00
2022-07-28T09:56:04.059Z,47200.00
2022-07-28T09:57:04.560Z,46688.00
2022-07-28T09:58:04.377Z,47040.00
2022-07-28T09:59:04.147Z,46848.00
2022-07-28T10:00:04.122Z,46240.00
2022-07-28T10:01:04.234Z,45312.00
2022-07-28T10:02:03.789Z,45312.00
2022-07-28T10:03:03.722Z,44960.00
2022-07-28T10:04:03.476Z,43872.00
2022-07-28T10:05:03.267Z,45184.00
2022-07-28T10:06:03.829Z,46240.00
2022-07-28T10:07:03.323Z,45504.00
2022-07-28T10:08:02.897Z,46080.00
2022-07-28T10:09:03.277Z,47616.00
2022-07-28T10:10:03.005Z,47808.00
2022-07-28T10:11:02.824Z,46688.00
2022-07-28T10:12:04.010Z,47616.00
2022-07-28T10:13:03.839Z,48224.00
2022-07-28T10:14:03.634Z,50080.00
2022-07-28T10:15:03.633Z,50464.00
2022-07-28T10:16:03.491Z,49472.00
2022-07-28T10:17:06.244Z,49760.00
2022-07-28T10:18:03.394Z,48768.00
2022-07-28T10:19:03.220Z,47840.00
2022-07-28T10:20:03.018Z,49568.00
2022-07-28T10:21:03.366Z,51008.00
2022-07-28T10:22:03.170Z,52352.00
2022-07-28T10:23:03.599Z,51744.00
2022-07-28T10:24:03.403Z,52832.00
2022-07-28T10:25:03.196Z,52096.00
2022-07-28T10:26:03.612Z,52704.00
2022-07-28T10:27:03.463Z,52768.00
2022-07-28T10:28:03.692Z,52256.00
2022-07-28T10:29:04.098Z,46912.00
2022-07-28T10:30:03.793Z,51840.00
2022-07-28T10:31:03.776Z,51520.00
2022-07-28T10:32:03.583Z,52576.00
2022-07-28T10:33:04.016Z,51136.00
2022-07-28T10:34:04.017Z,54176.00
2022-07-28T10:35:03.832Z,52896.00
2022-07-28T10:36:04.180Z,51488.00
2022-07-28T10:37:03.888Z,51232.00
2022-07-28T10:38:03.393Z,50688.00
2022-07-28T10:39:03.372Z,34272.00
2022-07-28T10:40:07.811Z,42080.00
2022-07-28T10:41:03.119Z,32576.00
2022-07-28T10:42:03.447Z,43072.00
2022-07-28T10:43:03.255Z,30816.00
2022-07-28T10:44:03.322Z,46048.00
2022-07-28T10:45:03.559Z,26176.00
2022-07-28T10:46:05.979Z,26944.00
2022-07-28T10:47:03.567Z,28800.00
2022-07-28T10:48:03.985Z,28320.00
2022-07-28T10:49:03.974Z,40704.00
2022-07-28T10:50:03.648Z,43904.00
2022-07-28T10:51:03.569Z,43936.00
2022-07-28T10:52:06.657Z,46624.00
2022-07-28T10:53:04.235Z,46144.00
2022-07-28T10:54:04.157Z,46592.00
2022-07-28T10:55:03.599Z,45312.00
2022-07-28T10:56:04.068Z,43616.00
2022-07-28T10:57:04.836Z,40832.00
2022-07-28T10:58:11.472Z,45376.00
2022-07-28T10:59:05.000Z,46176.00
2022-07-28T11:00:12.705Z,45440.00
2022-07-28T11:01:06.260Z,45184.00
2022-07-28T11:02:03.353Z,44160.00
2022-07-28T11:03:13.515Z,46464.00
2022-07-28T11:04:02.400Z,44192.00
2022-07-28T11:05:02.876Z,44288.00
2022-07-28T11:06:02.600Z,48224.00
2022-07-28T11:07:02.970Z,47744.00
2022-07-28T11:08:03.492Z,23616.00
2022-07-28T11:09:03.391Z,18688.00
2022-07-28T11:10:03.535Z,19488.00
2022-07-28T11:11:09.127Z,20384.00
2022-07-28T11:12:03.054Z,18528.00
2022-07-28T11:13:04.004Z,18272.00
2022-07-28T11:14:03.057Z,18432.00
2022-07-28T11:15:15.802Z,19200.00
2022-07-28T11:16:03.228Z,19104.00
2022-07-28T11:17:03.755Z,50336.00
2022-07-28T11:18:03.111Z,18432.00
2022-07-28T11:19:04.655Z,18048.00
2022-07-28T11:20:30.176Z,18368.00
2022-07-28T11:21:03.134Z,18944.00
2022-07-28T11:22:02.977Z,18816.00
2022-07-28T11:23:03.303Z,18784.00
2022-07-28T11:24:03.056Z,19296.00
2022-07-28T11:25:17.998Z,19264.00
2022-07-28T11:26:03.136Z,19264.00
2022-07-28T11:27:04.265Z,19392.00
2022-07-28T11:28:03.372Z,19872.00
2022-07-28T11:29:03.746Z,22464.00
2022-07-28T11:30:03.579Z,22944.00
2022-07-28T11:31:03.511Z,23328.00
2022-07-28T11:32:03.281Z,19520.00
2022-07-28T11:33:03.577Z,20576.00
2022-07-28T11:34:03.244Z,28672.00
2022-07-28T11:35:03.774Z,32096.00
2022-07-28T11:36:03.481Z,42400.00
2022-07-28T11:37:03.789Z,46880.00
2022-07-28T11:38:03.716Z,44896.00
2022-07-28T11:39:02.885Z,46048.00
2022-07-28T11:40:03.145Z,49088.00
2022-07-28T11:41:03.080Z,49856.00
2022-07-28T11:42:03.173Z,48800.00
2022-07-28T11:43:03.684Z,47872.00
2022-07-28T11:44:03.534Z,46848.00
2022-07-28T11:45:03.600Z,45408.00
2022-07-28T11:46:03.398Z,42080.00
2022-07-28T11:47:03.411Z,49216.00
2022-07-28T11:48:03.917Z,46784.00
2022-07-28T11:49:03.696Z,51008.00
2022-07-28T11:50:03.520Z,49280.00
2022-07-28T11:51:04.015Z,44704.00
2022-07-28T11:52:03.835Z,46528.00
2022-07-28T11:53:04.301Z,51104.00
2022-07-28T11:54:04.341Z,55776.00
2022-07-28T11:55:03.902Z,58496.00
2022-07-28T11:56:04.219Z,57504.00
2022-07-28T11:57:03.917Z,57920.00
2022-07-28T11:58:02.983Z,58560.00
2022-07-28T11:59:03.523Z,59328.00
2022-07-28T12:00:03.480Z,60416.00
2022-07-28T12:01:03.276Z,60704.00
2022-07-28T12:02:03.020Z,59808.00
2022-07-28T12:03:03.884Z,22240.00
2022-07-28T12:04:03.442Z,37024.00
2022-07-28T12:05:04.003Z,63904.00
2022-07-28T12:06:03.885Z,64160.00
2022-07-28T12:07:03.679Z,60736.00
2022-07-28T12:08:04.052Z,61248.00
2022-07-28T12:09:03.930Z,58240.00
2022-07-28T12:10:03.510Z,58560.00
2022-07-28T12:11:03.716Z,60064.00
2022-07-28T12:12:04.186Z,57760.00
2022-07-28T12:13:03.019Z,59744.00
2022-07-28T12:14:03.476Z,59520.00
2022-07-28T12:15:06.842Z,45536.00